Time;durP1;ratioP1;P1;durP2;ratioP2;P2;SDS_P1;SDS_P2;PMS_P1;PMS_P2;Temp;Humidity;BMP_temperature;BMP_pressure;BME280_temperature;BME280_humidity;BME280_pressure;Samples;Min_cycle;Max_cycle;Signal;HPM_P1;HPM_P2
2022/10/03 00:02:04;;;;;;;;;;;10.00;99.90;;;;;;5077509;28;20279;-77
2022/10/03 00:04:36;;;;;;;;;;;10.00;99.90;;;;;;5071171;28;19912;-76
2022/10/03 00:07:01;;;;;;;;;;;10.00;99.90;;;;;;5072705;28;19915;-76
2022/10/03 00:09:38;;;;;;;;;;;9.90;99.90;;;;;;5069502;28;19917;-76
2022/10/03 00:12:18;;;;;;;;;;;9.90;99.90;;;;;;5069558;28;19931;-77
2022/10/03 00:14:51;;;;;;;;;;;9.90;99.90;;;;;;5082163;28;19908;-76
2022/10/03 00:17:22;;;;;;;;;;;9.90;99.90;;;;;;5066988;28;20270;-77
2022/10/03 00:19:53;;;;;;;;;;;9.80;99.90;;;;;;5080933;28;19920;-77
2022/10/03 00:22:44;;;;;;;;;;;9.80;99.90;;;;;;5072495;28;20323;-76
2022/10/03 00:25:19;;;;;;;;;;;9.80;99.90;;;;;;5075860;28;19916;-77
2022/10/03 00:27:44;;;;;;;;;;;9.80;99.90;;;;;;5075090;28;19912;-76
2022/10/03 00:30:21;;;;;;;;;;;9.80;99.90;;;;;;5068699;28;19912;-76
2022/10/03 00:33:01;;;;;;;;;;;9.80;99.90;;;;;;5072759;28;19920;-76
2022/10/03 00:35:33;;;;;;;;;;;9.70;99.90;;;;;;5066896;28;20013;-76
2022/10/03 00:38:15;;;;;;;;;;;9.70;99.90;;;;;;5074726;28;19973;-77
2022/10/03 00:40:59;;;;;;;;;;;9.70;99.90;;;;;;5048762;28;19920;-77
2022/10/03 00:43:36;;;;;;;;;;;9.70;99.90;;;;;;5068356;28;20027;-76
2022/10/03 00:46:05;;;;;;;;;;;9.70;99.90;;;;;;5069971;28;19956;-76
2022/10/03 00:48:49;;;;;;;;;;;9.60;99.90;;;;;;5067275;28;19912;-76
2022/10/03 00:51:17;;;;;;;;;;;9.70;99.90;;;;;;5068468;28;19913;-76
2022/10/03 00:53:54;;;;;;;;;;;9.60;99.90;;;;;;5075973;28;20242;-77
2022/10/03 00:56:33;;;;;;;;;;;9.60;99.90;;;;;;5082817;28;20265;-76
2022/10/03 00:59:14;;;;;;;;;;;9.50;99.90;;;;;;5076525;28;19917;-77
2022/10/03 01:01:44;;;;;;;;;;;9.50;99.90;;;;;;5073244;28;20011;-77
2022/10/03 01:04:22;;;;;;;;;;;9.50;99.90;;;;;;5073895;28;19963;-77
2022/10/03 01:07:06;;;;;;;;;;;9.50;99.90;;;;;;5073048;28;20396;-77
2022/10/03 01:09:45;;;;;;;;;;;9.50;99.90;;;;;;5076714;28;20314;-77
2022/10/03 01:12:29;;;;;;;;;;;9.50;99.90;;;;;;5074314;28;19908;-77
2022/10/03 01:15:06;;;;;;;;;;;9.50;99.90;;;;;;5064851;28;19917;-76
2022/10/03 01:17:48;;;;;;;;;;;9.50;99.90;;;;;;5068075;28;19978;-76
2022/10/03 01:20:23;;;;;;;;;;;9.50;99.90;;;;;;5077266;28;20365;-77
2022/10/03 01:23:07;;;;;;;;;;;9.50;99.90;;;;;;5081227;28;19916;-76
2022/10/03 01:25:56;;;;;;;;;;;9.50;99.90;;;;;;5077054;28;19999;-76
2022/10/03 01:31:27;;;;;;;;;;;9.50;99.90;;;;;;5020836;28;19922;-77
2022/10/03 01:33:57;;;;;;;;;;;9.50;99.90;;;;;;5074552;28;19920;-76
2022/10/03 01:36:38;;;;;;;;;;;9.50;99.90;;;;;;5071599;28;19919;-76
2022/10/03 01:39:04;;;;;;;;;;;9.50;99.90;;;;;;5065155;28;20342;-77
2022/10/03 01:41:45;;;;;;;;;;;9.40;99.90;;;;;;5074159;28;19999;-76
2022/10/03 01:44:23;;;;;;;;;;;9.50;99.90;;;;;;5086980;28;19913;-76
2022/10/03 01:47:08;;;;;;;;;;;9.50;99.90;;;;;;5054590;28;19920;-76
2022/10/03 01:50:07;;;;;;;;;;;9.60;99.90;;;;;;5066757;28;19917;-76
2022/10/03 01:52:32;;;;;;;;;;;9.60;99.90;;;;;;5019033;28;19956;-76
2022/10/03 01:55:04;;;;;;;;;;;9.70;99.90;;;;;;5035305;28;19952;-76
2022/10/03 01:57:42;;;;;;;;;;;9.70;99.90;;;;;;5032851;28;19920;-76
2022/10/03 02:00:14;;;;;;;;;;;9.60;99.90;;;;;;5034471;28;19917;-76
2022/10/03 02:02:45;;;;;;;;;;;9.60;99.90;;;;;;5034530;28;19916;-77
2022/10/03 02:05:18;;;;;;;;;;;9.50;99.90;;;;;;5018607;28;19948;-76
2022/10/03 02:07:47;;;;;;;;;;;9.50;99.90;;;;;;5028004;28;19913;-76
2022/10/03 02:10:12;;;;;;;;;;;9.50;99.90;;;;;;5030793;28;19919;-76
2022/10/03 02:12:39;;;;;;;;;;;9.50;99.90;;;;;;5023651;28;20630;-77
2022/10/03 02:15:25;;;;;;;;;;;9.50;99.90;;;;;;5035108;28;19955;-76
2022/10/03 02:18:01;;;;;;;;;;;9.40;99.90;;;;;;5027906;28;19910;-76
2022/10/03 02:20:46;;;;;;;;;;;9.50;99.90;;;;;;5017037;28;19921;-76
2022/10/03 02:23:44;;;;;;;;;;;9.50;99.90;;;;;;5033637;28;20291;-76
2022/10/03 02:26:28;;;;;;;;;;;9.50;99.90;;;;;;4958080;28;19956;-76
2022/10/03 02:29:26;;;;;;;;;;;9.40;99.90;;;;;;4971674;28;19922;-76
2022/10/03 02:32:17;;;;;;;;;;;9.40;99.90;;;;;;4917933;29;20026;-77
2022/10/03 02:35:04;;;;;;;;;;;9.40;99.90;;;;;;4917817;29;19919;-76
2022/10/03 02:37:36;;;;;;;;;;;9.40;99.90;;;;;;4917307;29;19919;-76
2022/10/03 02:40:04;;;;;;;;;;;9.40;99.90;;;;;;4905380;29;19919;-76
2022/10/03 02:42:36;;;;;;;;;;;9.50;99.90;;;;;;4918053;29;19916;-77
2022/10/03 02:45:21;;;;;;;;;;;9.40;99.90;;;;;;4917505;29;19911;-76
2022/10/03 02:48:04;;;;;;;;;;;9.40;99.90;;;;;;4909849;29;20358;-76
2022/10/03 02:50:32;;;;;;;;;;;9.30;99.90;;;;;;4905863;29;20006;-76
2022/10/03 02:53:05;;;;;;;;;;;9.30;99.90;;;;;;4914644;29;20545;-74
2022/10/03 02:55:49;;;;;;;;;;;9.30;99.90;;;;;;4914050;29;19926;-76
2022/10/03 02:58:37;;;;;;;;;;;9.30;99.90;;;;;;4915561;29;20577;-76
2022/10/03 03:01:06;;;;;;;;;;;9.20;99.90;;;;;;4930617;28;19918;-76
2022/10/03 03:03:45;;;;;;;;;;;9.20;99.90;;;;;;4987645;28;20005;-76
2022/10/03 03:06:18;;;;;;;;;;;9.20;99.90;;;;;;4991654;28;20021;-76
2022/10/03 03:08:50;;;;;;;;;;;9.10;99.90;;;;;;5074689;28;20312;-76
2022/10/03 03:11:37;;;;;;;;;;;9.10;99.90;;;;;;5065351;28;20218;-76
2022/10/03 03:14:15;;;;;;;;;;;9.10;99.90;;;;;;5067713;28;19913;-76
2022/10/03 03:16:59;;;;;;;;;;;9.10;99.90;;;;;;5076624;28;19916;-76
2022/10/03 03:19:43;;;;;;;;;;;9.10;99.90;;;;;;5071681;28;19924;-77
2022/10/03 03:22:19;;;;;;;;;;;9.20;99.90;;;;;;5075847;28;20243;-76
2022/10/03 03:24:58;;;;;;;;;;;9.20;99.90;;;;;;5074074;28;19927;-77
2022/10/03 03:27:42;;;;;;;;;;;9.10;99.90;;;;;;5080884;28;20258;-76
2022/10/03 03:30:21;;;;;;;;;;;9.20;99.90;;;;;;5074218;28;19920;-77
2022/10/03 03:33:04;;;;;;;;;;;9.20;99.90;;;;;;5082715;28;19995;-76
2022/10/03 03:35:48;;;;;;;;;;;9.30;99.90;;;;;;5081534;28;19912;-76
2022/10/03 03:38:16;;;;;;;;;;;9.20;99.90;;;;;;5077454;28;19913;-76
2022/10/03 03:40:42;;;;;;;;;;;9.10;99.90;;;;;;5075764;28;19962;-76
2022/10/03 03:43:26;;;;;;;;;;;9.10;99.90;;;;;;5075950;28;19932;-76
2022/10/03 03:45:53;;;;;;;;;;;9.00;99.90;;;;;;5072298;28;19916;-76
2022/10/03 03:48:31;;;;;;;;;;;9.10;99.90;;;;;;5077887;28;19927;-75
2022/10/03 03:51:10;;;;;;;;;;;9.10;99.90;;;;;;5066393;28;20375;-76
2022/10/03 03:53:45;;;;;;;;;;;9.10;99.90;;;;;;5068657;28;19913;-76
2022/10/03 03:56:35;;;;;;;;;;;9.10;99.90;;;;;;5068446;28;19959;-76
2022/10/03 03:59:13;;;;;;;;;;;9.10;99.90;;;;;;5071635;28;19913;-75
2022/10/03 04:01:58;;;;;;;;;;;9.10;99.90;;;;;;5069455;28;20265;-76
2022/10/03 04:04:40;;;;;;;;;;;9.00;99.90;;;;;;5075220;28;19917;-76
2022/10/03 04:07:16;;;;;;;;;;;9.00;99.90;;;;;;5053081;28;19951;-76
2022/10/03 04:10:07;;;;;;;;;;;8.90;99.90;;;;;;5070004;28;20329;-76
2022/10/03 04:12:36;;;;;;;;;;;8.80;99.90;;;;;;5065692;28;19920;-76
2022/10/03 04:15:13;;;;;;;;;;;8.80;99.90;;;;;;5080295;28;19908;-76
2022/10/03 04:20:38;;;;;;;;;;;8.80;99.90;;;;;;5071807;28;19966;-76
2022/10/03 04:23:10;;;;;;;;;;;8.70;99.90;;;;;;5076867;28;19966;-76
2022/10/03 04:25:45;;;;;;;;;;;8.60;99.90;;;;;;5075362;28;19916;-76
2022/10/03 04:28:37;;;;;;;;;;;8.60;99.90;;;;;;5076038;28;20224;-75
2022/10/03 04:31:22;;;;;;;;;;;8.60;99.90;;;;;;5069960;28;19923;-76
2022/10/03 04:33:55;;;;;;;;;;;8.70;99.90;;;;;;5077671;28;19927;-75
2022/10/03 04:36:38;;;;;;;;;;;8.70;99.90;;;;;;5078795;28;19923;-75
2022/10/03 04:39:07;;;;;;;;;;;8.80;99.90;;;;;;5071087;28;20038;-76
2022/10/03 04:41:52;;;;;;;;;;;8.90;99.90;;;;;;5073590;28;19949;-75
2022/10/03 04:44:33;;;;;;;;;;;8.80;99.90;;;;;;5074153;28;20007;-75
2022/10/03 04:47:17;;;;;;;;;;;8.80;99.90;;;;;;5074823;28;20328;-75
2022/10/03 04:49:59;;;;;;;;;;;8.70;99.90;;;;;;5071600;28;19918;-75
2022/10/03 04:52:25;;;;;;;;;;;8.70;99.90;;;;;;5069410;28;19912;-75
2022/10/03 04:54:53;;;;;;;;;;;8.60;99.90;;;;;;5077964;28;19915;-75
2022/10/03 04:57:28;;;;;;;;;;;8.60;99.90;;;;;;5065141;28;19923;-75
2022/10/03 05:00:12;;;;;;;;;;;8.70;99.90;;;;;;5067687;28;19922;-75
2022/10/03 05:02:50;;;;;;;;;;;8.70;99.90;;;;;;5066974;28;19920;-75
2022/10/03 05:05:48;;;;;;;;;;;8.70;99.90;;;;;;5077022;28;20011;-74
2022/10/03 05:08:34;;;;;;;;;;;8.70;99.90;;;;;;5000359;28;19929;-75
2022/10/03 05:11:18;;;;;;;;;;;8.60;99.90;;;;;;5003198;28;19914;-75
2022/10/03 05:13:52;;;;;;;;;;;8.50;99.90;;;;;;5021725;28;19913;-76
2022/10/03 05:16:23;;;;;;;;;;;8.60;99.90;;;;;;5019100;28;20335;-75
2022/10/03 05:18:54;;;;;;;;;;;8.70;99.90;;;;;;5012558;28;19917;-76
2022/10/03 05:21:26;;;;;;;;;;;8.70;99.90;;;;;;5023149;28;19967;-75
2022/10/03 05:24:01;;;;;;;;;;;8.80;99.90;;;;;;5020399;28;20386;-76
2022/10/03 05:26:39;;;;;;;;;;;8.80;99.90;;;;;;5001665;28;19996;-76
2022/10/03 05:29:14;;;;;;;;;;;8.80;99.90;;;;;;5008858;28;20034;-76
2022/10/03 05:31:39;;;;;;;;;;;8.90;99.90;;;;;;5018560;28;19920;-75
2022/10/03 05:34:23;;;;;;;;;;;9.00;99.90;;;;;;5029780;28;19917;-76
2022/10/03 05:36:52;;;;;;;;;;;9.00;99.90;;;;;;5028484;28;19921;-75
2022/10/03 05:39:36;;;;;;;;;;;9.00;99.90;;;;;;5031581;28;19909;-76
2022/10/03 05:42:04;;;;;;;;;;;9.00;99.90;;;;;;5030039;28;19917;-74
2022/10/03 05:44:37;;;;;;;;;;;8.90;99.90;;;;;;5079362;28;19912;-75
2022/10/03 05:47:02;;;;;;;;;;;8.90;99.90;;;;;;5087299;28;19935;-75
2022/10/03 05:49:46;;;;;;;;;;;8.90;99.90;;;;;;5093826;28;20319;-75
2022/10/03 05:52:44;;;;;;;;;;;8.90;99.90;;;;;;5086541;28;19912;-74
2022/10/03 05:55:29;;;;;;;;;;;8.90;99.90;;;;;;5011626;28;19923;-75
2022/10/03 05:57:58;;;;;;;;;;;8.90;99.90;;;;;;5000240;28;20231;-75
2022/10/03 06:00:23;;;;;;;;;;;9.00;99.90;;;;;;5002838;28;19929;-75
2022/10/03 06:03:07;;;;;;;;;;;9.00;99.90;;;;;;5006339;28;19913;-76
2022/10/03 06:05:52;;;;;;;;;;;9.10;99.90;;;;;;5019188;28;20313;-75
2022/10/03 06:08:33;;;;;;;;;;;9.10;99.90;;;;;;5029090;28;19967;-75
2022/10/03 06:11:02;;;;;;;;;;;9.20;99.90;;;;;;5028111;28;20304;-75
2022/10/03 06:13:37;;;;;;;;;;;9.20;99.90;;;;;;5025654;28;19959;-75
2022/10/03 06:16:08;;;;;;;;;;;9.30;99.90;;;;;;5028469;28;20275;-77
2022/10/03 06:18:53;;;;;;;;;;;9.40;99.90;;;;;;5015982;28;20263;-75
2022/10/03 06:21:41;;;;;;;;;;;9.40;99.90;;;;;;5027419;28;20008;-75
2022/10/03 06:24:15;;;;;;;;;;;9.50;99.90;;;;;;5027002;28;19924;-75
2022/10/03 06:26:47;;;;;;;;;;;9.60;99.90;;;;;;5011174;28;19913;-75
2022/10/03 06:29:31;;;;;;;;;;;9.70;99.90;;;;;;5013856;28;19917;-75
2022/10/03 06:32:00;;;;;;;;;;;9.80;99.90;;;;;;5083243;28;19938;-75
2022/10/03 06:34:45;;;;;;;;;;;9.90;99.90;;;;;;5089280;28;19927;-75
2022/10/03 06:37:23;;;;;;;;;;;10.10;99.90;;;;;;5081805;28;20011;-73
2022/10/03 06:40:07;;;;;;;;;;;10.20;99.90;;;;;;5087841;28;19920;-73
2022/10/03 06:42:42;;;;;;;;;;;10.30;99.90;;;;;;5090138;28;19916;-72
2022/10/03 06:45:08;;;;;;;;;;;10.40;99.90;;;;;;5088977;28;19923;-73
2022/10/03 06:47:52;;;;;;;;;;;10.50;99.90;;;;;;5092179;28;19919;-73
2022/10/03 06:50:21;;;;;;;;;;;10.50;99.90;;;;;;5094537;28;20357;-73
2022/10/03 06:52:50;;;;;;;;;;;10.50;99.90;;;;;;5091780;28;19957;-73
2022/10/03 06:55:37;;;;;;;;;;;10.60;99.90;;;;;;5088475;28;20003;-73
2022/10/03 06:58:22;;;;;;;;;;;10.60;99.90;;;;;;5089647;28;20307;-73
2022/10/03 07:00:57;;;;;;;;;;;10.80;99.90;;;;;;5071025;28;19916;-74
2022/10/03 07:03:41;;;;;;;;;;;10.90;99.90;;;;;;5093601;28;20354;-72
2022/10/03 07:06:24;;;;;;;;;;;10.90;99.90;;;;;;5072717;28;20306;-73
2022/10/03 07:08:53;;;;;;;;;;;10.90;99.90;;;;;;5074390;28;19908;-74
2022/10/03 07:11:21;;;;;;;;;;;10.90;99.90;;;;;;5067471;28;19965;-73
2022/10/03 07:13:59;;;;;;;;;;;11.00;99.90;;;;;;5081913;28;19916;-73
2022/10/03 07:16:31;;;;;;;;;;;11.10;99.90;;;;;;5080438;28;19908;-73
2022/10/03 07:19:06;;;;;;;;;;;11.20;99.90;;;;;;5083993;28;19920;-73
2022/10/03 07:21:51;;;;;;;;;;;11.20;99.90;;;;;;5080027;28;19920;-73
2022/10/03 07:24:39;;;;;;;;;;;11.30;99.90;;;;;;5093819;28;19915;-74
2022/10/03 07:27:18;;;;;;;;;;;11.30;99.90;;;;;;5086202;28;19908;-73
2022/10/03 07:29:55;;;;;;;;;;;11.40;99.90;;;;;;5074985;28;19919;-73
2022/10/03 07:32:33;;;;;;;;;;;11.40;99.90;;;;;;5075740;28;19916;-74
2022/10/03 07:35:13;;;;;;;;;;;11.50;99.90;;;;;;5078469;28;19916;-76
2022/10/03 07:40:26;;;;;;;;;;;11.70;99.90;;;;;;5069147;28;19923;-74
2022/10/03 07:43:11;;;;;;;;;;;11.80;99.90;;;;;;5060566;28;19952;-74
2022/10/03 07:45:39;;;;;;;;;;;11.80;99.90;;;;;;5058871;28;19917;-74
2022/10/03 07:48:17;;;;;;;;;;;11.90;99.90;;;;;;5074948;28;19909;-74
2022/10/03 07:50:43;;;;;;;;;;;12.00;99.90;;;;;;5062597;28;19921;-73
2022/10/03 07:53:12;;;;;;;;;;;12.10;99.90;;;;;;5085783;28;19998;-73
2022/10/03 07:55:56;;;;;;;;;;;12.10;99.90;;;;;;5089224;28;20011;-74
2022/10/03 07:58:41;;;;;;;;;;;12.20;99.90;;;;;;5093137;28;19912;-74
2022/10/03 08:01:36;;;;;;;;;;;12.30;99.90;;;;;;5087729;28;19919;-74
2022/10/03 08:04:13;;;;;;;;;;;12.40;99.90;;;;;;5042817;28;19913;-74
2022/10/03 08:06:44;;;;;;;;;;;12.40;99.90;;;;;;5088429;28;20314;-74
2022/10/03 08:09:22;;;;;;;;;;;12.50;99.90;;;;;;5078307;28;19912;-74
2022/10/03 08:11:50;;;;;;;;;;;12.60;99.90;;;;;;5070074;28;20345;-74
2022/10/03 08:14:39;;;;;;;;;;;12.70;99.90;;;;;;5073248;28;19924;-74
2022/10/03 08:17:16;;;;;;;;;;;12.70;99.90;;;;;;5060548;28;19944;-74
2022/10/03 08:20:06;;;;;;;;;;;12.80;99.90;;;;;;5089044;28;19927;-74
2022/10/03 08:22:31;;;;;;;;;;;12.90;99.90;;;;;;5087226;28;19926;-74
2022/10/03 08:25:06;;;;;;;;;;;12.90;99.90;;;;;;5090434;28;19916;-74
2022/10/03 08:27:34;;;;;;;;;;;13.00;99.90;;;;;;5088814;28;19918;-74
2022/10/03 08:30:18;;;;;;;;;;;13.10;99.90;;;;;;5090511;28;19923;-73
2022/10/03 08:32:56;;;;;;;;;;;13.10;99.90;;;;;;5075683;28;20211;-74
2022/10/03 08:35:34;;;;;;;;;;;13.20;99.90;;;;;;5089156;28;19908;-74
2022/10/03 08:38:11;;;;;;;;;;;13.20;99.90;;;;;;5086210;28;19916;-74
2022/10/03 08:40:55;;;;;;;;;;;13.30;99.90;;;;;;5091444;28;19924;-74
2022/10/03 08:43:39;;;;;;;;;;;13.30;99.90;;;;;;5090995;28;19940;-74
2022/10/03 08:46:20;;;;;;;;;;;13.40;99.90;;;;;;5073985;28;19908;-74
2022/10/03 08:48:49;;;;;;;;;;;13.40;99.90;;;;;;5073036;28;19912;-74
2022/10/03 08:51:33;;;;;;;;;;;13.50;99.90;;;;;;5074485;28;19921;-74
2022/10/03 08:54:08;;;;;;;;;;;13.50;99.90;;;;;;5069900;28;19927;-74
2022/10/03 08:56:34;;;;;;;;;;;13.50;99.90;;;;;;5062680;28;19920;-74
2022/10/03 08:59:16;;;;;;;;;;;13.50;99.90;;;;;;5080238;28;20079;-74
2022/10/03 09:01:55;;;;;;;;;;;13.60;99.90;;;;;;5087820;28;19920;-74
2022/10/03 09:04:39;;;;;;;;;;;13.60;99.90;;;;;;5085779;28;19912;-74
2022/10/03 09:07:17;;;;;;;;;;;13.70;99.90;;;;;;5089006;28;20311;-73
2022/10/03 09:10:01;;;;;;;;;;;13.70;99.90;;;;;;5078463;28;20007;-74
2022/10/03 09:12:30;;;;;;;;;;;13.80;99.90;;;;;;5089655;28;19919;-74
2022/10/03 09:15:04;;;;;;;;;;;13.80;99.90;;;;;;5094306;28;19912;-74
2022/10/03 09:17:48;;;;;;;;;;;13.80;99.90;;;;;;5097954;28;19919;-74
2022/10/03 09:20:26;;;;;;;;;;;13.90;99.90;;;;;;5069650;28;19924;-73
2022/10/03 09:23:04;;;;;;;;;;;14.00;99.90;;;;;;5067694;28;19967;-74
2022/10/03 09:25:30;;;;;;;;;;;14.00;99.90;;;;;;5066300;28;19961;-74
2022/10/03 09:28:14;;;;;;;;;;;14.10;99.90;;;;;;5086550;28;19959;-73
2022/10/03 09:30:46;;;;;;;;;;;14.20;99.90;;;;;;5085557;28;19959;-74
2022/10/03 09:33:14;;;;;;;;;;;14.30;99.90;;;;;;5087250;28;20253;-74
2022/10/03 09:35:43;;;;;;;;;;;14.40;99.90;;;;;;5086291;28;19923;-76
2022/10/03 09:38:11;;;;;;;;;;;14.50;99.90;;;;;;5081823;28;19920;-77
2022/10/03 09:40:49;;;;;;;;;;;14.60;99.90;;;;;;5083333;28;19916;-76
2022/10/03 09:43:18;;;;;;;;;;;14.80;99.90;;;;;;5073447;28;20208;-76
2022/10/03 09:45:55;;;;;;;;;;;15.00;99.90;;;;;;5076719;28;19913;-76
2022/10/03 09:48:25;;;;;;;;;;;15.20;99.90;;;;;;5064526;28;19920;-76
2022/10/03 09:50:54;;;;;;;;;;;15.40;99.90;;;;;;5072131;28;19941;-77
2022/10/03 09:53:33;;;;;;;;;;;15.70;99.90;;;;;;5073996;28;19923;-76
2022/10/03 09:56:18;;;;;;;;;;;15.90;99.90;;;;;;5084654;28;19917;-76
2022/10/03 09:58:50;;;;;;;;;;;16.00;99.90;;;;;;5049290;28;19913;-77
2022/10/03 10:01:15;;;;;;;;;;;16.20;99.90;;;;;;5082787;28;19965;-77
2022/10/03 10:04:00;;;;;;;;;;;16.30;99.90;;;;;;5081698;28;20211;-77
2022/10/03 10:06:28;;;;;;;;;;;16.40;99.90;;;;;;5074015;28;19953;-77
2022/10/03 10:09:00;;;;;;;;;;;16.50;99.90;;;;;;5089350;28;20315;-76
2022/10/03 10:11:46;;;;;;;;;;;16.50;99.90;;;;;;5073258;28;19912;-77
2022/10/03 10:14:37;;;;;;;;;;;16.70;99.90;;;;;;5082427;28;19913;-76
2022/10/03 10:17:09;;;;;;;;;;;16.80;99.90;;;;;;5059423;28;19962;-77
2022/10/03 10:19:38;;;;;;;;;;;16.80;99.90;;;;;;5077231;28;19970;-77
2022/10/03 10:22:03;;;;;;;;;;;16.80;99.90;;;;;;5087474;28;19986;-74
2022/10/03 10:24:38;;;;;;;;;;;16.80;99.90;;;;;;5081134;28;20256;-77
2022/10/03 10:27:07;;;;;;;;;;;16.80;99.90;;;;;;5078686;28;19917;-76
2022/10/03 10:29:51;;;;;;;;;;;17.00;99.90;;;;;;5070020;28;19920;-77
2022/10/03 10:32:40;;;;;;;;;;;17.20;99.90;;;;;;5073319;28;19912;-77
2022/10/03 10:35:33;;;;;;;;;;;17.40;99.90;;;;;;5046416;28;19955;-77
2022/10/03 10:38:18;;;;;;;;;;;17.40;99.90;;;;;;5077094;28;19958;-77
2022/10/03 10:41:02;;;;;;;;;;;17.50;99.90;;;;;;5076337;28;20322;-79
2022/10/03 10:43:39;;;;;;;;;;;17.50;99.90;;;;;;5073153;28;19908;-77
2022/10/03 10:46:11;;;;;;;;;;;17.50;99.90;;;;;;5067570;28;19920;-77
2022/10/03 10:49:09;;;;;;;;;;;17.50;99.90;;;;;;5082257;28;19951;-78
2022/10/03 10:51:44;;;;;;;;;;;17.60;99.90;;;;;;5076139;28;19939;-78
2022/10/03 10:54:09;;;;;;;;;;;17.80;99.90;;;;;;5086908;28;19916;-77
2022/10/03 10:56:53;;;;;;;;;;;18.00;99.90;;;;;;5088455;28;19962;-77
2022/10/03 10:59:22;;;;;;;;;;;18.10;99.90;;;;;;5087204;28;19995;-76
2022/10/03 11:01:51;;;;;;;;;;;18.20;99.90;;;;;;5090960;28;19999;-77
2022/10/03 11:04:25;;;;;;;;;;;18.30;99.90;;;;;;5081275;28;19965;-76
2022/10/03 11:06:57;;;;;;;;;;;18.30;99.90;;;;;;5080023;28;19917;-78
2022/10/03 11:09:43;;;;;;;;;;;18.20;99.90;;;;;;5064317;28;19930;-77
2022/10/03 11:12:28;;;;;;;;;;;18.20;99.90;;;;;;5086903;28;20287;-77
2022/10/03 11:14:53;;;;;;;;;;;18.20;99.90;;;;;;5078514;28;19973;-75
2022/10/03 11:17:38;;;;;;;;;;;18.30;99.90;;;;;;5087376;28;19920;-77
2022/10/03 11:20:22;;;;;;;;;;;18.40;99.90;;;;;;5090868;28;19928;-77
2022/10/03 11:23:06;;;;;;;;;;;18.50;99.90;;;;;;5084494;28;19920;-77
2022/10/03 11:25:39;;;;;;;;;;;18.60;99.90;;;;;;5081908;28;20249;-77
2022/10/03 11:28:08;;;;;;;;;;;18.70;99.90;;;;;;5068781;28;19919;-77
2022/10/03 11:30:34;;;;;;;;;;;18.80;99.90;;;;;;5083690;28;19916;-75
2022/10/03 11:33:05;;;;;;;;;;;18.90;99.90;;;;;;5087931;28;20193;-76
2022/10/03 11:35:31;;;;;;;;;;;19.00;99.90;;;;;;5085614;28;19978;-76
2022/10/03 11:38:15;;;;;;;;;;;19.20;99.90;;;;;;5084359;28;19948;-75
2022/10/03 11:40:54;;;;;;;;;;;19.40;99.90;;;;;;5082194;28;20184;-77
2022/10/03 11:43:38;;;;;;;;;;;19.50;99.90;;;;;;5090120;28;20303;-77
2022/10/03 11:46:04;;;;;;;;;;;19.60;99.90;;;;;;5075306;28;19921;-75
2022/10/03 11:48:40;;;;;;;;;;;19.80;99.90;;;;;;5054017;28;19965;-75
2022/10/03 11:51:14;;;;;;;;;;;19.80;99.90;;;;;;5062724;28;19923;-76
2022/10/03 11:53:52;;;;;;;;;;;19.80;99.90;;;;;;5065492;28;19912;-77
2022/10/03 11:56:32;;;;;;;;;;;19.80;99.90;;;;;;5075642;28;19912;-77
2022/10/03 11:59:17;;;;;;;;;;;19.80;99.90;;;;;;5073769;28;19939;-77
2022/10/03 12:02:02;;;;;;;;;;;19.90;99.90;;;;;;5083493;28;19917;-76
2022/10/03 12:05:00;;;;;;;;;;;19.80;99.90;;;;;;5068368;28;20216;-76
2022/10/03 12:10:45;;;;;;;;;;;19.60;99.90;;;;;;5030041;28;20008;-76
2022/10/03 12:13:15;;;;;;;;;;;19.60;99.90;;;;;;5010041;28;19913;-77
2022/10/03 12:15:44;;;;;;;;;;;19.70;99.90;;;;;;5003302;28;19927;-75
2022/10/03 12:18:19;;;;;;;;;;;19.70;99.90;;;;;;5034794;28;19916;-75
2022/10/03 12:20:54;;;;;;;;;;;19.70;99.90;;;;;;5028450;28;20051;-76
2022/10/03 12:23:27;;;;;;;;;;;19.70;99.90;;;;;;5027912;28;20323;-76
2022/10/03 12:25:55;;;;;;;;;;;19.80;99.90;;;;;;5034618;28;20279;-76
2022/10/03 12:28:21;;;;;;;;;;;19.70;99.90;;;;;;5031293;28;19913;-76
2022/10/03 12:30:47;;;;;;;;;;;19.70;99.90;;;;;;5031473;28;21116;-76
2022/10/03 12:33:20;;;;;;;;;;;19.70;99.90;;;;;;5028954;28;19917;-75
2022/10/03 12:36:02;;;;;;;;;;;19.70;99.90;;;;;;5021700;28;19909;-76
2022/10/03 12:38:40;;;;;;;;;;;19.60;99.90;;;;;;5026962;28;20343;-75
2022/10/03 12:41:05;;;;;;;;;;;19.60;99.90;;;;;;5051408;28;20332;-74
2022/10/03 12:43:33;;;;;;;;;;;19.50;99.90;;;;;;5031318;28;19944;-75
2022/10/03 12:46:02;;;;;;;;;;;19.50;99.90;;;;;;5042456;28;20254;-75
2022/10/03 12:48:36;;;;;;;;;;;19.50;99.90;;;;;;5072048;28;20273;-75
2022/10/03 12:51:22;;;;;;;;;;;19.40;99.90;;;;;;5074796;28;20348;-75
2022/10/03 12:54:06;;;;;;;;;;;19.40;99.90;;;;;;5068103;28;19951;-74
2022/10/03 12:56:41;;;;;;;;;;;19.30;99.90;;;;;;5070673;28;19916;-75
2022/10/03 12:59:06;;;;;;;;;;;19.10;99.90;;;;;;5068217;28;19919;-75
2022/10/03 13:01:44;;;;;;;;;;;18.80;99.90;;;;;;5070654;28;20006;-74
2022/10/03 13:04:16;;;;;;;;;;;18.60;99.90;;;;;;5066678;28;20011;-74
2022/10/03 13:06:56;;;;;;;;;;;18.40;99.90;;;;;;5067466;28;19999;-75
2022/10/03 13:09:26;;;;;;;;;;;18.30;99.90;;;;;;5063814;28;20365;-74
2022/10/03 13:11:52;;;;;;;;;;;18.20;99.90;;;;;;5075328;28;19931;-75
2022/10/03 13:14:27;;;;;;;;;;;18.20;99.90;;;;;;5060903;28;20212;-74
2022/10/03 13:17:03;;;;;;;;;;;18.20;99.90;;;;;;5067579;28;20219;-74
2022/10/03 13:19:39;;;;;;;;;;;18.20;99.90;;;;;;5073417;28;20192;-74
2022/10/03 13:22:22;;;;;;;;;;;18.10;99.90;;;;;;5074698;28;19912;-74
2022/10/03 13:25:13;;;;;;;;;;;18.10;99.90;;;;;;5075101;28;19952;-75
2022/10/03 13:27:45;;;;;;;;;;;18.00;99.90;;;;;;5072242;28;20200;-75
2022/10/03 13:30:17;;;;;;;;;;;17.90;99.90;;;;;;5075790;28;19909;-75
2022/10/03 13:32:58;;;;;;;;;;;17.80;99.90;;;;;;5075313;28;19991;-75
2022/10/03 13:38:23;;;;;;;;;;;17.70;99.90;;;;;;5060959;28;19946;-76
2022/10/03 13:40:54;;;;;;;;;;;17.60;99.90;;;;;;5065698;28;20236;-75
2022/10/03 13:43:24;;;;;;;;;;;17.60;99.90;;;;;;5069006;28;20148;-75
2022/10/03 13:45:50;;;;;;;;;;;17.50;99.90;;;;;;5077163;28;19908;-75
2022/10/03 13:48:18;;;;;;;;;;;17.40;99.90;;;;;;5086418;28;19919;-75
2022/10/03 13:50:57;;;;;;;;;;;17.40;99.90;;;;;;5080396;28;20354;-75
2022/10/03 13:53:28;;;;;;;;;;;17.40;99.90;;;;;;5084024;28;20241;-75
2022/10/03 13:56:00;;;;;;;;;;;17.30;99.90;;;;;;5071503;28;19939;-75
2022/10/03 13:58:45;;;;;;;;;;;17.30;99.90;;;;;;5084035;28;20007;-75
2022/10/03 14:01:34;;;;;;;;;;;17.20;99.90;;;;;;5082456;28;20003;-74
2022/10/03 14:04:18;;;;;;;;;;;17.20;99.90;;;;;;5069164;28;20319;-74
2022/10/03 14:06:44;;;;;;;;;;;17.20;99.90;;;;;;5061211;28;19923;-74
2022/10/03 14:09:30;;;;;;;;;;;17.30;99.90;;;;;;5074153;28;20299;-75
2022/10/03 14:12:13;;;;;;;;;;;17.30;99.90;;;;;;5071066;28;19919;-75
2022/10/03 14:14:38;;;;;;;;;;;17.30;99.90;;;;;;5071545;28;20315;-75
2022/10/03 14:17:10;;;;;;;;;;;17.20;99.90;;;;;;5056672;28;19920;-75
2022/10/03 14:19:36;;;;;;;;;;;17.20;99.90;;;;;;5056632;28;20008;-74
2022/10/03 14:22:11;;;;;;;;;;;17.20;99.90;;;;;;5071613;28;20011;-74
2022/10/03 14:24:56;;;;;;;;;;;17.20;99.90;;;;;;5075877;28;20007;-74
2022/10/03 14:27:42;;;;;;;;;;;17.10;99.90;;;;;;5071343;28;19912;-75
2022/10/03 14:30:15;;;;;;;;;;;17.10;99.90;;;;;;5095194;28;19951;-75
2022/10/03 14:33:05;;;;;;;;;;;17.10;99.90;;;;;;5088031;28;20283;-75
2022/10/03 14:35:37;;;;;;;;;;;17.10;99.90;;;;;;5088641;28;20334;-75
2022/10/03 14:38:17;;;;;;;;;;;17.10;99.90;;;;;;5078823;28;19932;-75
2022/10/03 14:41:03;;;;;;;;;;;17.00;99.90;;;;;;5066381;28;19913;-74
2022/10/03 14:43:31;;;;;;;;;;;17.00;99.90;;;;;;5072020;28;19970;-75
2022/10/03 14:45:59;;;;;;;;;;;17.00;99.90;;;;;;5075404;28;20003;-74
2022/10/03 14:48:29;;;;;;;;;;;17.00;99.90;;;;;;5070067;28;19913;-75
2022/10/03 14:50:59;;;;;;;;;;;17.00;99.90;;;;;;5065690;28;20313;-75
2022/10/03 14:53:28;;;;;;;;;;;17.00;99.90;;;;;;5071395;28;19913;-75
2022/10/03 14:56:10;;;;;;;;;;;17.00;99.90;;;;;;5073551;28;19965;-75
2022/10/03 14:58:56;;;;;;;;;;;17.00;99.90;;;;;;5074661;28;19913;-75
2022/10/03 15:01:23;;;;;;;;;;;17.00;99.90;;;;;;5074150;28;19942;-74
2022/10/03 15:04:14;;;;;;;;;;;17.00;99.90;;;;;;5071430;28;19938;-74
2022/10/03 15:06:46;;;;;;;;;;;17.00;99.90;;;;;;5065515;28;19948;-74
2022/10/03 15:09:17;;;;;;;;;;;17.20;99.90;;;;;;5070116;28;20000;-75
2022/10/03 15:11:46;;;;;;;;;;;17.30;99.90;;;;;;5074546;28;19966;-75
2022/10/03 15:14:12;;;;;;;;;;;17.30;99.90;;;;;;5064827;28;19913;-75
2022/10/03 15:17:05;;;;;;;;;;;17.30;99.90;;;;;;5080142;28;20474;-74
2022/10/03 15:19:37;;;;;;;;;;;17.20;99.90;;;;;;5069114;28;20003;-74
2022/10/03 15:22:32;;;;;;;;;;;17.10;99.90;;;;;;5072227;28;20258;-74
2022/10/03 15:25:02;;;;;;;;;;;17.00;99.90;;;;;;5057435;28;19908;-74
2022/10/03 15:27:28;;;;;;;;;;;17.00;99.90;;;;;;5073382;28;19930;-74
2022/10/03 15:29:59;;;;;;;;;;;16.90;99.90;;;;;;5064653;28;19920;-74
2022/10/03 15:32:28;;;;;;;;;;;16.80;99.90;;;;;;5073851;28;19999;-74